sensor_id;sensor_type;location;lat;lon;timestamp;P1;durP1;ratioP1;P2;durP2;ratioP2
66380;SDS011;53177;52.648;1.214;2023-06-10T00:01:43;23.85;;;6.82;;
66380;SDS011;53177;52.648;1.214;2023-06-10T00:04:13;17.60;;;6.47;;
66380;SDS011;53177;52.648;1.214;2023-06-10T00:06:45;19.98;;;6.60;;
66380;SDS011;53177;52.648;1.214;2023-06-10T00:09:13;26.67;;;7.70;;
66380;SDS011;53177;52.648;1.214;2023-06-10T00:11:39;25.98;;;7.00;;
66380;SDS011;53177;52.648;1.214;2023-06-10T00:14:05;19.42;;;7.38;;
66380;SDS011;53177;52.648;1.214;2023-06-10T00:16:31;23.33;;;7.50;;
66380;SDS011;53177;52.648;1.214;2023-06-10T00:18:57;21.00;;;6.55;;
66380;SDS011;53177;52.648;1.214;2023-06-10T00:21:29;24.00;;;7.30;;
66380;SDS011;53177;52.648;1.214;2023-06-10T00:24:05;22.48;;;6.53;;
66380;SDS011;53177;52.648;1.214;2023-06-10T00:26:32;20.40;;;7.05;;
66380;SDS011;53177;52.648;1.214;2023-06-10T00:28:58;24.10;;;7.03;;
66380;SDS011;53177;52.648;1.214;2023-06-10T00:31:24;28.35;;;7.15;;
66380;SDS011;53177;52.648;1.214;2023-06-10T00:33:51;17.73;;;6.00;;
66380;SDS011;53177;52.648;1.214;2023-06-10T00:36:17;22.23;;;6.53;;
66380;SDS011;53177;52.648;1.214;2023-06-10T00:38:42;23.17;;;6.87;;
66380;SDS011;53177;52.648;1.214;2023-06-10T00:41:07;24.47;;;6.73;;
66380;SDS011;53177;52.648;1.214;2023-06-10T00:43:33;22.83;;;6.70;;
66380;SDS011;53177;52.648;1.214;2023-06-10T00:45:58;27.20;;;7.70;;
66380;SDS011;53177;52.648;1.214;2023-06-10T00:48:24;26.37;;;7.30;;
66380;SDS011;53177;52.648;1.214;2023-06-10T00:50:50;24.77;;;6.90;;
66380;SDS011;53177;52.648;1.214;2023-06-10T00:53:16;27.30;;;7.63;;
66380;SDS011;53177;52.648;1.214;2023-06-10T00:55:41;23.73;;;6.88;;
66380;SDS011;53177;52.648;1.214;2023-06-10T00:58:07;24.67;;;6.67;;
66380;SDS011;53177;52.648;1.214;2023-06-10T01:00:33;20.63;;;6.43;;
66380;SDS011;53177;52.648;1.214;2023-06-10T01:02:58;24.63;;;6.90;;
66380;SDS011;53177;52.648;1.214;2023-06-10T01:05:24;22.83;;;7.30;;
66380;SDS011;53177;52.648;1.214;2023-06-10T01:15:27;24.60;;;7.28;;
66380;SDS011;53177;52.648;1.214;2023-06-10T01:18:09;26.65;;;6.85;;
66380;SDS011;53177;52.648;1.214;2023-06-10T01:20:40;28.70;;;7.22;;
66380;SDS011;53177;52.648;1.214;2023-06-10T01:23:08;19.45;;;6.18;;
66380;SDS011;53177;52.648;1.214;2023-06-10T01:25:43;28.70;;;7.57;;
66380;SDS011;53177;52.648;1.214;2023-06-10T01:28:19;24.30;;;6.93;;
66380;SDS011;53177;52.648;1.214;2023-06-10T01:33:59;26.20;;;7.53;;
66380;SDS011;53177;52.648;1.214;2023-06-10T01:36:27;21.85;;;7.25;;
66380;SDS011;53177;52.648;1.214;2023-06-10T01:38:53;24.88;;;7.57;;
66380;SDS011;53177;52.648;1.214;2023-06-10T01:41:19;25.73;;;7.35;;
66380;SDS011;53177;52.648;1.214;2023-06-10T01:43:46;25.17;;;7.50;;
66380;SDS011;53177;52.648;1.214;2023-06-10T01:46:12;29.50;;;7.88;;
66380;SDS011;53177;52.648;1.214;2023-06-10T01:48:39;26.25;;;7.50;;
66380;SDS011;53177;52.648;1.214;2023-06-10T01:51:06;22.02;;;7.47;;
66380;SDS011;53177;52.648;1.214;2023-06-10T01:53:31;24.30;;;7.10;;
66380;SDS011;53177;52.648;1.214;2023-06-10T01:55:56;28.05;;;8.02;;
66380;SDS011;53177;52.648;1.214;2023-06-10T01:58:22;31.93;;;7.80;;
66380;SDS011;53177;52.648;1.214;2023-06-10T02:00:47;28.33;;;7.60;;
66380;SDS011;53177;52.648;1.214;2023-06-10T02:03:12;25.00;;;8.37;;
66380;SDS011;53177;52.648;1.214;2023-06-10T02:05:38;28.57;;;8.53;;
66380;SDS011;53177;52.648;1.214;2023-06-10T02:08:04;30.38;;;8.50;;
66380;SDS011;53177;52.648;1.214;2023-06-10T02:10:30;28.88;;;7.68;;
66380;SDS011;53177;52.648;1.214;2023-06-10T02:12:55;24.83;;;7.87;;
66380;SDS011;53177;52.648;1.214;2023-06-10T02:15:21;23.83;;;8.30;;
66380;SDS011;53177;52.648;1.214;2023-06-10T02:17:46;25.57;;;8.20;;
66380;SDS011;53177;52.648;1.214;2023-06-10T02:20:12;27.53;;;8.20;;
66380;SDS011;53177;52.648;1.214;2023-06-10T02:22:38;29.67;;;8.13;;
66380;SDS011;53177;52.648;1.214;2023-06-10T02:25:04;27.03;;;8.07;;
66380;SDS011;53177;52.648;1.214;2023-06-10T02:27:30;31.10;;;8.40;;
66380;SDS011;53177;52.648;1.214;2023-06-10T02:29:59;31.08;;;8.45;;
66380;SDS011;53177;52.648;1.214;2023-06-10T02:32:24;27.63;;;8.63;;
66380;SDS011;53177;52.648;1.214;2023-06-10T02:34:50;24.90;;;7.80;;
66380;SDS011;53177;52.648;1.214;2023-06-10T02:37:16;29.05;;;8.48;;
66380;SDS011;53177;52.648;1.214;2023-06-10T02:39:41;27.97;;;8.67;;
66380;SDS011;53177;52.648;1.214;2023-06-10T02:42:07;29.00;;;9.03;;
66380;SDS011;53177;52.648;1.214;2023-06-10T02:44:32;32.85;;;9.35;;
66380;SDS011;53177;52.648;1.214;2023-06-10T02:46:58;32.80;;;8.82;;
66380;SDS011;53177;52.648;1.214;2023-06-10T02:49:23;32.00;;;9.23;;
66380;SDS011;53177;52.648;1.214;2023-06-10T02:51:52;29.30;;;8.03;;
66380;SDS011;53177;52.648;1.214;2023-06-10T02:54:24;30.15;;;8.85;;
66380;SDS011;53177;52.648;1.214;2023-06-10T02:56:53;28.48;;;9.65;;
66380;SDS011;53177;52.648;1.214;2023-06-10T02:59:21;27.13;;;8.70;;
66380;SDS011;53177;52.648;1.214;2023-06-10T03:01:50;23.70;;;9.05;;
66380;SDS011;53177;52.648;1.214;2023-06-10T03:04:20;35.40;;;8.98;;
66380;SDS011;53177;52.648;1.214;2023-06-10T03:06:46;24.43;;;8.40;;
66380;SDS011;53177;52.648;1.214;2023-06-10T03:09:12;32.38;;;9.80;;
66380;SDS011;53177;52.648;1.214;2023-06-10T03:11:38;29.73;;;9.10;;
66380;SDS011;53177;52.648;1.214;2023-06-10T03:14:04;29.50;;;8.03;;
66380;SDS011;53177;52.648;1.214;2023-06-10T03:16:29;32.60;;;9.70;;
66380;SDS011;53177;52.648;1.214;2023-06-10T03:18:56;31.40;;;9.02;;
66380;SDS011;53177;52.648;1.214;2023-06-10T03:21:21;36.20;;;9.47;;
66380;SDS011;53177;52.648;1.214;2023-06-10T03:23:47;29.08;;;8.77;;
66380;SDS011;53177;52.648;1.214;2023-06-10T03:26:13;30.97;;;8.57;;
66380;SDS011;53177;52.648;1.214;2023-06-10T03:28:39;35.78;;;9.25;;
66380;SDS011;53177;52.648;1.214;2023-06-10T03:31:04;25.13;;;9.00;;
66380;SDS011;53177;52.648;1.214;2023-06-10T03:33:30;27.60;;;8.93;;
66380;SDS011;53177;52.648;1.214;2023-06-10T03:35:56;30.48;;;8.25;;
66380;SDS011;53177;52.648;1.214;2023-06-10T03:38:21;22.53;;;8.33;;
66380;SDS011;53177;52.648;1.214;2023-06-10T03:40:47;29.67;;;8.83;;
66380;SDS011;53177;52.648;1.214;2023-06-10T03:43:12;28.23;;;9.40;;
66380;SDS011;53177;52.648;1.214;2023-06-10T03:45:38;30.10;;;8.53;;
66380;SDS011;53177;52.648;1.214;2023-06-10T03:48:03;33.57;;;8.73;;
66380;SDS011;53177;52.648;1.214;2023-06-10T03:50:29;25.85;;;8.50;;
66380;SDS011;53177;52.648;1.214;2023-06-10T03:52:55;32.07;;;9.37;;
66380;SDS011;53177;52.648;1.214;2023-06-10T03:55:20;31.02;;;8.88;;
66380;SDS011;53177;52.648;1.214;2023-06-10T03:57:47;30.65;;;8.95;;
66380;SDS011;53177;52.648;1.214;2023-06-10T04:00:13;29.60;;;8.80;;
66380;SDS011;53177;52.648;1.214;2023-06-10T04:02:40;29.10;;;9.02;;
66380;SDS011;53177;52.648;1.214;2023-06-10T04:05:14;32.42;;;8.73;;
66380;SDS011;53177;52.648;1.214;2023-06-10T04:07:41;30.02;;;8.73;;
66380;SDS011;53177;52.648;1.214;2023-06-10T04:10:07;26.95;;;8.90;;
66380;SDS011;53177;52.648;1.214;2023-06-10T04:12:33;28.37;;;8.97;;
66380;SDS011;53177;52.648;1.214;2023-06-10T04:14:59;33.38;;;9.15;;
66380;SDS011;53177;52.648;1.214;2023-06-10T04:17:25;29.83;;;8.43;;
66380;SDS011;53177;52.648;1.214;2023-06-10T04:19:51;27.50;;;8.63;;
66380;SDS011;53177;52.648;1.214;2023-06-10T04:22:17;30.50;;;9.40;;
66380;SDS011;53177;52.648;1.214;2023-06-10T04:24:43;28.20;;;8.97;;
66380;SDS011;53177;52.648;1.214;2023-06-10T04:27:09;25.90;;;8.75;;
66380;SDS011;53177;52.648;1.214;2023-06-10T04:29:35;32.83;;;8.50;;
66380;SDS011;53177;52.648;1.214;2023-06-10T04:32:01;31.38;;;8.75;;
66380;SDS011;53177;52.648;1.214;2023-06-10T04:34:26;24.47;;;8.23;;
66380;SDS011;53177;52.648;1.214;2023-06-10T04:36:52;27.67;;;8.57;;
66380;SDS011;53177;52.648;1.214;2023-06-10T04:39:18;27.10;;;8.87;;
66380;SDS011;53177;52.648;1.214;2023-06-10T04:41:43;27.33;;;8.37;;
66380;SDS011;53177;52.648;1.214;2023-06-10T04:44:08;26.57;;;8.77;;
66380;SDS011;53177;52.648;1.214;2023-06-10T04:46:35;27.00;;;8.90;;
66380;SDS011;53177;52.648;1.214;2023-06-10T04:49:01;25.97;;;8.17;;
66380;SDS011;53177;52.648;1.214;2023-06-10T04:51:26;28.40;;;7.82;;
66380;SDS011;53177;52.648;1.214;2023-06-10T04:53:52;24.27;;;8.43;;
66380;SDS011;53177;52.648;1.214;2023-06-10T04:56:18;31.30;;;8.80;;
66380;SDS011;53177;52.648;1.214;2023-06-10T04:58:44;23.10;;;7.95;;
66380;SDS011;53177;52.648;1.214;2023-06-10T05:01:09;25.30;;;8.93;;
66380;SDS011;53177;52.648;1.214;2023-06-10T05:03:34;26.77;;;7.77;;
66380;SDS011;53177;52.648;1.214;2023-06-10T05:06:00;21.87;;;7.70;;
66380;SDS011;53177;52.648;1.214;2023-06-10T05:08:25;25.93;;;8.27;;
66380;SDS011;53177;52.648;1.214;2023-06-10T05:10:50;25.17;;;8.00;;
66380;SDS011;53177;52.648;1.214;2023-06-10T05:13:16;28.57;;;8.10;;
66380;SDS011;53177;52.648;1.214;2023-06-10T05:15:42;28.55;;;7.93;;
66380;SDS011;53177;52.648;1.214;2023-06-10T05:18:09;22.67;;;7.43;;
66380;SDS011;53177;52.648;1.214;2023-06-10T05:20:36;21.10;;;7.70;;
66380;SDS011;53177;52.648;1.214;2023-06-10T05:23:02;20.93;;;7.57;;
66380;SDS011;53177;52.648;1.214;2023-06-10T05:25:28;24.80;;;7.40;;
66380;SDS011;53177;52.648;1.214;2023-06-10T05:27:55;20.42;;;7.25;;
66380;SDS011;53177;52.648;1.214;2023-06-10T05:30:21;21.10;;;7.63;;
66380;SDS011;53177;52.648;1.214;2023-06-10T05:32:47;27.75;;;7.90;;
66380;SDS011;53177;52.648;1.214;2023-06-10T05:35:13;21.17;;;6.93;;
66380;SDS011;53177;52.648;1.214;2023-06-10T05:37:38;21.07;;;7.10;;
66380;SDS011;53177;52.648;1.214;2023-06-10T05:40:04;23.45;;;8.15;;
66380;SDS011;53177;52.648;1.214;2023-06-10T05:42:30;20.52;;;7.30;;
66380;SDS011;53177;52.648;1.214;2023-06-10T05:44:55;20.58;;;6.88;;
66380;SDS011;53177;52.648;1.214;2023-06-10T05:47:21;25.02;;;7.60;;
66380;SDS011;53177;52.648;1.214;2023-06-10T05:49:46;19.23;;;7.40;;
66380;SDS011;53177;52.648;1.214;2023-06-10T05:52:14;17.85;;;6.97;;
66380;SDS011;53177;52.648;1.214;2023-06-10T05:54:39;16.50;;;6.50;;
66380;SDS011;53177;52.648;1.214;2023-06-10T05:57:05;19.70;;;7.20;;
66380;SDS011;53177;52.648;1.214;2023-06-10T05:59:30;18.95;;;6.90;;
66380;SDS011;53177;52.648;1.214;2023-06-10T06:01:56;18.37;;;6.90;;
66380;SDS011;53177;52.648;1.214;2023-06-10T06:04:21;21.67;;;6.93;;
66380;SDS011;53177;52.648;1.214;2023-06-10T06:06:47;20.03;;;6.60;;
66380;SDS011;53177;52.648;1.214;2023-06-10T06:09:12;16.73;;;6.63;;
66380;SDS011;53177;52.648;1.214;2023-06-10T06:11:38;20.20;;;6.80;;
66380;SDS011;53177;52.648;1.214;2023-06-10T06:14:03;18.53;;;6.90;;
66380;SDS011;53177;52.648;1.214;2023-06-10T06:16:29;19.13;;;6.90;;
66380;SDS011;53177;52.648;1.214;2023-06-10T06:18:54;17.73;;;7.07;;
66380;SDS011;53177;52.648;1.214;2023-06-10T06:21:19;15.95;;;6.80;;
66380;SDS011;53177;52.648;1.214;2023-06-10T06:23:45;18.33;;;6.60;;
66380;SDS011;53177;52.648;1.214;2023-06-10T06:26:10;18.77;;;7.53;;
66380;SDS011;53177;52.648;1.214;2023-06-10T06:28:36;15.77;;;6.23;;
66380;SDS011;53177;52.648;1.214;2023-06-10T06:31:01;14.80;;;6.13;;
66380;SDS011;53177;52.648;1.214;2023-06-10T06:33:26;18.13;;;6.30;;
66380;SDS011;53177;52.648;1.214;2023-06-10T06:35:52;16.70;;;6.50;;
66380;SDS011;53177;52.648;1.214;2023-06-10T06:38:17;14.27;;;6.33;;
66380;SDS011;53177;52.648;1.214;2023-06-10T06:40:43;15.90;;;6.53;;
66380;SDS011;53177;52.648;1.214;2023-06-10T06:43:08;14.47;;;6.50;;
66380;SDS011;53177;52.648;1.214;2023-06-10T06:45:34;15.60;;;6.22;;
66380;SDS011;53177;52.648;1.214;2023-06-10T06:47:59;17.20;;;6.87;;
66380;SDS011;53177;52.648;1.214;2023-06-10T06:50:25;14.03;;;6.33;;
66380;SDS011;53177;52.648;1.214;2023-06-10T06:52:50;15.65;;;6.57;;
66380;SDS011;53177;52.648;1.214;2023-06-10T06:55:16;16.83;;;6.63;;
66380;SDS011;53177;52.648;1.214;2023-06-10T06:57:41;16.53;;;6.70;;
66380;SDS011;53177;52.648;1.214;2023-06-10T07:00:07;19.13;;;7.40;;
66380;SDS011;53177;52.648;1.214;2023-06-10T07:02:34;17.92;;;6.60;;
66380;SDS011;53177;52.648;1.214;2023-06-10T07:05:00;17.13;;;6.80;;
66380;SDS011;53177;52.648;1.214;2023-06-10T07:07:25;13.90;;;6.40;;
66380;SDS011;53177;52.648;1.214;2023-06-10T07:09:51;15.67;;;7.30;;
66380;SDS011;53177;52.648;1.214;2023-06-10T07:12:17;16.40;;;6.70;;
66380;SDS011;53177;52.648;1.214;2023-06-10T07:14:43;16.50;;;7.40;;
66380;SDS011;53177;52.648;1.214;2023-06-10T07:17:09;16.40;;;6.70;;
66380;SDS011;53177;52.648;1.214;2023-06-10T07:19:40;17.23;;;7.10;;
66380;SDS011;53177;52.648;1.214;2023-06-10T07:22:05;14.00;;;6.67;;
66380;SDS011;53177;52.648;1.214;2023-06-10T07:24:31;15.95;;;7.13;;
66380;SDS011;53177;52.648;1.214;2023-06-10T07:26:56;16.60;;;6.43;;
66380;SDS011;53177;52.648;1.214;2023-06-10T07:29:22;16.23;;;7.00;;
66380;SDS011;53177;52.648;1.214;2023-06-10T07:31:47;13.70;;;6.33;;
66380;SDS011;53177;52.648;1.214;2023-06-10T07:34:12;14.83;;;6.47;;
66380;SDS011;53177;52.648;1.214;2023-06-10T07:36:38;15.63;;;6.60;;
66380;SDS011;53177;52.648;1.214;2023-06-10T07:39:04;15.10;;;6.63;;
66380;SDS011;53177;52.648;1.214;2023-06-10T07:41:29;12.35;;;6.43;;
66380;SDS011;53177;52.648;1.214;2023-06-10T07:43:55;13.23;;;6.70;;
66380;SDS011;53177;52.648;1.214;2023-06-10T07:46:21;12.75;;;6.15;;
66380;SDS011;53177;52.648;1.214;2023-06-10T07:48:47;15.53;;;6.80;;
66380;SDS011;53177;52.648;1.214;2023-06-10T07:51:14;16.30;;;6.97;;
66380;SDS011;53177;52.648;1.214;2023-06-10T07:53:40;14.82;;;7.38;;
66380;SDS011;53177;52.648;1.214;2023-06-10T07:56:06;15.50;;;6.97;;
66380;SDS011;53177;52.648;1.214;2023-06-10T07:58:31;18.53;;;7.30;;
66380;SDS011;53177;52.648;1.214;2023-06-10T08:00:56;15.53;;;7.13;;
66380;SDS011;53177;52.648;1.214;2023-06-10T08:03:22;14.53;;;7.53;;
66380;SDS011;53177;52.648;1.214;2023-06-10T08:05:47;18.17;;;7.55;;
66380;SDS011;53177;52.648;1.214;2023-06-10T08:08:13;18.83;;;7.43;;
66380;SDS011;53177;52.648;1.214;2023-06-10T08:10:38;14.43;;;7.43;;
66380;SDS011;53177;52.648;1.214;2023-06-10T08:13:04;16.05;;;7.38;;
66380;SDS011;53177;52.648;1.214;2023-06-10T08:15:29;16.53;;;7.40;;
66380;SDS011;53177;52.648;1.214;2023-06-10T08:17:55;17.30;;;7.00;;
66380;SDS011;53177;52.648;1.214;2023-06-10T08:20:21;18.92;;;7.68;;
66380;SDS011;53177;52.648;1.214;2023-06-10T08:22:47;15.10;;;6.93;;
66380;SDS011;53177;52.648;1.214;2023-06-10T08:25:13;14.90;;;7.57;;
66380;SDS011;53177;52.648;1.214;2023-06-10T08:27:38;16.37;;;8.43;;
66380;SDS011;53177;52.648;1.214;2023-06-10T08:30:04;16.20;;;7.57;;
66380;SDS011;53177;52.648;1.214;2023-06-10T08:32:30;13.93;;;7.88;;
66380;SDS011;53177;52.648;1.214;2023-06-10T08:34:56;18.50;;;8.43;;
66380;SDS011;53177;52.648;1.214;2023-06-10T08:37:21;15.00;;;8.20;;
66380;SDS011;53177;52.648;1.214;2023-06-10T08:39:47;13.57;;;7.75;;
66380;SDS011;53177;52.648;1.214;2023-06-10T08:44:43;15.02;;;7.90;;
66380;SDS011;53177;52.648;1.214;2023-06-10T08:47:13;15.73;;;7.57;;
66380;SDS011;53177;52.648;1.214;2023-06-10T08:49:43;15.32;;;7.63;;
66380;SDS011;53177;52.648;1.214;2023-06-10T08:52:16;13.60;;;7.60;;
66380;SDS011;53177;52.648;1.214;2023-06-10T08:54:48;12.57;;;7.72;;
66380;SDS011;53177;52.648;1.214;2023-06-10T08:57:19;14.93;;;7.57;;
66380;SDS011;53177;52.648;1.214;2023-06-10T08:59:48;15.02;;;8.13;;
66380;SDS011;53177;52.648;1.214;2023-06-10T09:02:14;13.60;;;7.32;;
66380;SDS011;53177;52.648;1.214;2023-06-10T09:04:42;15.43;;;8.30;;
66380;SDS011;53177;52.648;1.214;2023-06-10T09:07:09;15.13;;;8.07;;
66380;SDS011;53177;52.648;1.214;2023-06-10T09:09:35;13.65;;;8.23;;
66380;SDS011;53177;52.648;1.214;2023-06-10T09:12:01;16.03;;;7.97;;
66380;SDS011;53177;52.648;1.214;2023-06-10T09:14:26;14.23;;;8.15;;
66380;SDS011;53177;52.648;1.214;2023-06-10T09:16:52;15.27;;;7.57;;
66380;SDS011;53177;52.648;1.214;2023-06-10T09:19:21;14.85;;;7.82;;
66380;SDS011;53177;52.648;1.214;2023-06-10T09:21:48;13.13;;;7.97;;
66380;SDS011;53177;52.648;1.214;2023-06-10T09:24:13;15.30;;;8.00;;
66380;SDS011;53177;52.648;1.214;2023-06-10T09:26:39;14.95;;;8.10;;
66380;SDS011;53177;52.648;1.214;2023-06-10T09:29:05;14.57;;;8.13;;
66380;SDS011;53177;52.648;1.214;2023-06-10T09:31:34;14.17;;;8.63;;
66380;SDS011;53177;52.648;1.214;2023-06-10T09:34:10;14.73;;;8.15;;
66380;SDS011;53177;52.648;1.214;2023-06-10T09:36:37;13.23;;;8.02;;
66380;SDS011;53177;52.648;1.214;2023-06-10T09:39:04;15.23;;;8.20;;
66380;SDS011;53177;52.648;1.214;2023-06-10T09:41:33;14.00;;;8.43;;
66380;SDS011;53177;52.648;1.214;2023-06-10T09:44:09;16.80;;;8.67;;
66380;SDS011;53177;52.648;1.214;2023-06-10T09:46:38;16.17;;;9.57;;
66380;SDS011;53177;52.648;1.214;2023-06-10T09:49:03;15.63;;;8.43;;
66380;SDS011;53177;52.648;1.214;2023-06-10T09:51:28;16.42;;;8.65;;
66380;SDS011;53177;52.648;1.214;2023-06-10T09:53:54;13.23;;;8.20;;
66380;SDS011;53177;52.648;1.214;2023-06-10T09:56:19;16.73;;;9.23;;
66380;SDS011;53177;52.648;1.214;2023-06-10T09:58:45;17.98;;;9.23;;
66380;SDS011;53177;52.648;1.214;2023-06-10T10:01:12;15.17;;;9.00;;
66380;SDS011;53177;52.648;1.214;2023-06-10T10:03:51;15.00;;;9.32;;
66380;SDS011;53177;52.648;1.214;2023-06-10T10:06:17;17.13;;;8.52;;
66380;SDS011;53177;52.648;1.214;2023-06-10T10:08:45;14.25;;;8.57;;
66380;SDS011;53177;52.648;1.214;2023-06-10T10:11:12;15.63;;;8.90;;
66380;SDS011;53177;52.648;1.214;2023-06-10T10:13:39;15.70;;;8.80;;
66380;SDS011;53177;52.648;1.214;2023-06-10T10:16:11;15.65;;;9.38;;
66380;SDS011;53177;52.648;1.214;2023-06-10T10:18:41;16.08;;;9.32;;
66380;SDS011;53177;52.648;1.214;2023-06-10T10:21:13;16.77;;;9.60;;
66380;SDS011;53177;52.648;1.214;2023-06-10T10:26:40;14.27;;;9.57;;
66380;SDS011;53177;52.648;1.214;2023-06-10T10:32:00;12.73;;;9.25;;
66380;SDS011;53177;52.648;1.214;2023-06-10T10:34:30;14.18;;;9.45;;
66380;SDS011;53177;52.648;1.214;2023-06-10T10:37:03;13.50;;;9.55;;
66380;SDS011;53177;52.648;1.214;2023-06-10T10:39:29;13.57;;;9.27;;
66380;SDS011;53177;52.648;1.214;2023-06-10T10:41:56;13.95;;;9.48;;
66380;SDS011;53177;52.648;1.214;2023-06-10T10:44:22;13.53;;;9.80;;
66380;SDS011;53177;52.648;1.214;2023-06-10T10:46:49;13.15;;;8.75;;
66380;SDS011;53177;52.648;1.214;2023-06-10T10:49:15;13.35;;;9.55;;
66380;SDS011;53177;52.648;1.214;2023-06-10T10:51:55;14.27;;;9.35;;
66380;SDS011;53177;52.648;1.214;2023-06-10T10:54:28;13.77;;;9.50;;
66380;SDS011;53177;52.648;1.214;2023-06-10T11:00:10;14.00;;;9.13;;
66380;SDS011;53177;52.648;1.214;2023-06-10T11:02:37;13.60;;;9.18;;
66380;SDS011;53177;52.648;1.214;2023-06-10T11:05:10;12.30;;;8.98;;
66380;SDS011;53177;52.648;1.214;2023-06-10T11:07:56;15.57;;;8.73;;
66380;SDS011;53177;52.648;1.214;2023-06-10T11:10:29;12.90;;;8.90;;
66380;SDS011;53177;52.648;1.214;2023-06-10T11:13:13;14.15;;;9.05;;
66380;SDS011;53177;52.648;1.214;2023-06-10T11:15:44;13.07;;;8.80;;
66380;SDS011;53177;52.648;1.214;2023-06-10T11:28:39;13.88;;;8.52;;
66380;SDS011;53177;52.648;1.214;2023-06-10T11:31:06;12.30;;;8.40;;
66380;SDS011;53177;52.648;1.214;2023-06-10T11:33:32;13.40;;;8.70;;
66380;SDS011;53177;52.648;1.214;2023-06-10T11:35:57;14.68;;;8.77;;
66380;SDS011;53177;52.648;1.214;2023-06-10T11:38:23;12.73;;;8.57;;
66380;SDS011;53177;52.648;1.214;2023-06-10T11:40:50;11.43;;;8.43;;
66380;SDS011;53177;52.648;1.214;2023-06-10T11:43:16;12.45;;;8.43;;
66380;SDS011;53177;52.648;1.214;2023-06-10T11:45:42;12.13;;;8.65;;
66380;SDS011;53177;52.648;1.214;2023-06-10T11:48:09;13.80;;;9.10;;
66380;SDS011;53177;52.648;1.214;2023-06-10T11:50:34;12.45;;;8.85;;
66380;SDS011;53177;52.648;1.214;2023-06-10T11:53:01;13.73;;;8.48;;
66380;SDS011;53177;52.648;1.214;2023-06-10T11:55:42;12.63;;;9.20;;
66380;SDS011;53177;52.648;1.214;2023-06-10T11:58:15;13.52;;;8.05;;
66380;SDS011;53177;52.648;1.214;2023-06-10T12:00:45;11.45;;;8.65;;
66380;SDS011;53177;52.648;1.214;2023-06-10T12:03:14;13.27;;;8.57;;
66380;SDS011;53177;52.648;1.214;2023-06-10T12:05:40;12.93;;;8.43;;
66380;SDS011;53177;52.648;1.214;2023-06-10T12:08:18;12.38;;;8.35;;
66380;SDS011;53177;52.648;1.214;2023-06-10T12:10:43;12.75;;;8.40;;
66380;SDS011;53177;52.648;1.214;2023-06-10T12:13:09;11.90;;;8.13;;
66380;SDS011;53177;52.648;1.214;2023-06-10T12:15:35;13.23;;;8.17;;
66380;SDS011;53177;52.648;1.214;2023-06-10T12:18:01;11.35;;;7.72;;
66380;SDS011;53177;52.648;1.214;2023-06-10T12:20:29;11.93;;;8.10;;
66380;SDS011;53177;52.648;1.214;2023-06-10T12:22:58;12.43;;;7.68;;
66380;SDS011;53177;52.648;1.214;2023-06-10T12:25:28;12.48;;;7.88;;
66380;SDS011;53177;52.648;1.214;2023-06-10T12:27:56;14.17;;;7.83;;
66380;SDS011;53177;52.648;1.214;2023-06-10T12:30:24;12.93;;;7.57;;
66380;SDS011;53177;52.648;1.214;2023-06-10T12:32:51;13.65;;;8.10;;
66380;SDS011;53177;52.648;1.214;2023-06-10T12:35:18;12.50;;;7.30;;
66380;SDS011;53177;52.648;1.214;2023-06-10T12:40:36;11.67;;;7.13;;
66380;SDS011;53177;52.648;1.214;2023-06-10T12:43:03;13.40;;;7.78;;
66380;SDS011;53177;52.648;1.214;2023-06-10T12:45:32;13.87;;;8.23;;
66380;SDS011;53177;52.648;1.214;2023-06-10T12:48:05;12.55;;;7.95;;
66380;SDS011;53177;52.648;1.214;2023-06-10T12:50:42;13.68;;;7.85;;
66380;SDS011;53177;52.648;1.214;2023-06-10T12:53:09;11.45;;;7.13;;
66380;SDS011;53177;52.648;1.214;2023-06-10T12:55:39;14.57;;;7.43;;
66380;SDS011;53177;52.648;1.214;2023-06-10T12:58:05;11.20;;;7.00;;
66380;SDS011;53177;52.648;1.214;2023-06-10T13:00:30;12.07;;;7.20;;
66380;SDS011;53177;52.648;1.214;2023-06-10T13:02:56;15.13;;;7.25;;
66380;SDS011;53177;52.648;1.214;2023-06-10T13:05:22;14.80;;;8.00;;
66380;SDS011;53177;52.648;1.214;2023-06-10T13:07:48;16.88;;;7.30;;
66380;SDS011;53177;52.648;1.214;2023-06-10T13:10:14;13.93;;;7.40;;
66380;SDS011;53177;52.648;1.214;2023-06-10T13:12:42;12.32;;;7.72;;
66380;SDS011;53177;52.648;1.214;2023-06-10T13:15:08;11.70;;;7.25;;
66380;SDS011;53177;52.648;1.214;2023-06-10T13:17:34;12.02;;;7.60;;
66380;SDS011;53177;52.648;1.214;2023-06-10T13:20:01;14.23;;;7.53;;
66380;SDS011;53177;52.648;1.214;2023-06-10T13:22:29;12.05;;;7.60;;
66380;SDS011;53177;52.648;1.214;2023-06-10T13:24:57;12.88;;;7.75;;
66380;SDS011;53177;52.648;1.214;2023-06-10T13:27:26;13.55;;;7.60;;
66380;SDS011;53177;52.648;1.214;2023-06-10T13:29:52;15.03;;;7.90;;
66380;SDS011;53177;52.648;1.214;2023-06-10T13:32:17;13.48;;;7.00;;
66380;SDS011;53177;52.648;1.214;2023-06-10T13:34:43;12.10;;;7.60;;
66380;SDS011;53177;52.648;1.214;2023-06-10T13:37:08;13.43;;;7.40;;
66380;SDS011;53177;52.648;1.214;2023-06-10T13:39:34;14.05;;;7.85;;
66380;SDS011;53177;52.648;1.214;2023-06-10T13:41:59;14.63;;;7.20;;
66380;SDS011;53177;52.648;1.214;2023-06-10T13:44:24;11.77;;;6.70;;
66380;SDS011;53177;52.648;1.214;2023-06-10T13:46:50;12.37;;;6.80;;
66380;SDS011;53177;52.648;1.214;2023-06-10T13:49:15;10.50;;;7.10;;
66380;SDS011;53177;52.648;1.214;2023-06-10T13:51:41;11.53;;;6.73;;
66380;SDS011;53177;52.648;1.214;2023-06-10T13:54:06;14.03;;;7.10;;
66380;SDS011;53177;52.648;1.214;2023-06-10T13:56:32;13.73;;;7.30;;
66380;SDS011;53177;52.648;1.214;2023-06-10T13:59:02;11.05;;;6.30;;
66380;SDS011;53177;52.648;1.214;2023-06-10T14:01:28;11.40;;;6.55;;
66380;SDS011;53177;52.648;1.214;2023-06-10T14:03:53;11.87;;;6.67;;
66380;SDS011;53177;52.648;1.214;2023-06-10T14:06:19;12.07;;;6.23;;
66380;SDS011;53177;52.648;1.214;2023-06-10T14:08:45;13.38;;;5.97;;
66380;SDS011;53177;52.648;1.214;2023-06-10T14:11:10;12.03;;;6.60;;
66380;SDS011;53177;52.648;1.214;2023-06-10T14:13:36;13.23;;;6.23;;
66380;SDS011;53177;52.648;1.214;2023-06-10T14:16:03;10.48;;;6.00;;
66380;SDS011;53177;52.648;1.214;2023-06-10T14:18:29;12.85;;;6.10;;
66380;SDS011;53177;52.648;1.214;2023-06-10T14:20:55;12.60;;;6.27;;
66380;SDS011;53177;52.648;1.214;2023-06-10T14:23:20;13.67;;;6.23;;
66380;SDS011;53177;52.648;1.214;2023-06-10T14:25:46;10.30;;;6.03;;
66380;SDS011;53177;52.648;1.214;2023-06-10T14:28:11;13.73;;;5.97;;
66380;SDS011;53177;52.648;1.214;2023-06-10T14:30:37;10.47;;;5.77;;
66380;SDS011;53177;52.648;1.214;2023-06-10T14:33:02;13.65;;;5.90;;
66380;SDS011;53177;52.648;1.214;2023-06-10T14:35:28;9.93;;;5.20;;
66380;SDS011;53177;52.648;1.214;2023-06-10T14:37:53;10.70;;;5.77;;
66380;SDS011;53177;52.648;1.214;2023-06-10T14:40:18;11.03;;;5.77;;
66380;SDS011;53177;52.648;1.214;2023-06-10T14:42:47;10.20;;;5.38;;
66380;SDS011;53177;52.648;1.214;2023-06-10T14:45:13;12.20;;;6.13;;
66380;SDS011;53177;52.648;1.214;2023-06-10T14:47:39;10.18;;;5.35;;
66380;SDS011;53177;52.648;1.214;2023-06-10T14:50:05;10.63;;;5.37;;
66380;SDS011;53177;52.648;1.214;2023-06-10T14:52:31;10.18;;;4.90;;
66380;SDS011;53177;52.648;1.214;2023-06-10T14:54:56;9.70;;;5.70;;
66380;SDS011;53177;52.648;1.214;2023-06-10T14:57:21;9.67;;;5.57;;
66380;SDS011;53177;52.648;1.214;2023-06-10T14:59:47;11.17;;;5.80;;
66380;SDS011;53177;52.648;1.214;2023-06-10T15:02:12;11.23;;;4.83;;
66380;SDS011;53177;52.648;1.214;2023-06-10T15:04:37;9.87;;;5.40;;
66380;SDS011;53177;52.648;1.214;2023-06-10T15:07:03;10.67;;;4.93;;
66380;SDS011;53177;52.648;1.214;2023-06-10T15:09:28;10.97;;;5.47;;